sensor_id;sensor_type;location;lat;lon;timestamp;P1;durP1;ratioP1;P2;durP2;ratioP2
63350;SDS011;64988;51.058;17.040;2023-04-10T06:39:29;213.80;;;47.28;;
63350;SDS011;64988;51.058;17.040;2023-04-10T06:44:57;204.65;;;48.03;;
63350;SDS011;64988;51.058;17.040;2023-04-10T06:50:25;202.85;;;44.97;;
63350;SDS011;64988;51.058;17.040;2023-04-10T06:55:52;210.25;;;47.35;;
63350;SDS011;64988;51.058;17.040;2023-04-10T07:01:19;194.25;;;43.25;;
63350;SDS011;64988;51.058;17.040;2023-04-10T07:06:46;108.95;;;36.28;;
63350;SDS011;64988;51.058;17.040;2023-04-10T07:12:13;97.28;;;39.95;;
63350;SDS011;64988;51.058;17.040;2023-04-10T07:17:40;142.27;;;39.92;;
63350;SDS011;64988;51.058;17.040;2023-04-10T07:23:08;124.43;;;42.05;;
63350;SDS011;64988;51.058;17.040;2023-04-10T07:28:37;86.25;;;40.22;;
63350;SDS011;64988;51.058;17.040;2023-04-10T07:34:05;71.30;;;38.63;;
63350;SDS011;64988;51.058;17.040;2023-04-10T07:39:33;71.57;;;38.25;;
63350;SDS011;64988;51.058;17.040;2023-04-10T07:45:00;75.82;;;38.55;;
63350;SDS011;64988;51.058;17.040;2023-04-10T07:50:28;73.93;;;38.92;;
63350;SDS011;64988;51.058;17.040;2023-04-10T07:55:56;69.50;;;35.65;;
63350;SDS011;64988;51.058;17.040;2023-04-10T08:01:25;65.60;;;36.33;;
63350;SDS011;64988;51.058;17.040;2023-04-10T08:06:53;68.55;;;39.38;;
63350;SDS011;64988;51.058;17.040;2023-04-10T08:12:20;63.95;;;38.13;;
63350;SDS011;64988;51.058;17.040;2023-04-10T08:17:47;64.63;;;38.33;;
63350;SDS011;64988;51.058;17.040;2023-04-10T08:23:15;65.65;;;39.95;;
63350;SDS011;64988;51.058;17.040;2023-04-10T08:28:47;58.50;;;37.78;;
63350;SDS011;64988;51.058;17.040;2023-04-10T08:34:16;58.00;;;36.38;;
63350;SDS011;64988;51.058;17.040;2023-04-10T08:39:43;59.22;;;37.20;;
63350;SDS011;64988;51.058;17.040;2023-04-10T08:45:12;59.47;;;36.70;;
63350;SDS011;64988;51.058;17.040;2023-04-10T08:50:40;66.38;;;38.47;;
63350;SDS011;64988;51.058;17.040;2023-04-10T08:56:13;57.90;;;36.60;;
63350;SDS011;64988;51.058;17.040;2023-04-10T09:01:44;57.00;;;36.30;;
63350;SDS011;64988;51.058;17.040;2023-04-10T09:07:12;53.00;;;33.97;;
63350;SDS011;64988;51.058;17.040;2023-04-10T09:12:44;53.60;;;33.55;;
63350;SDS011;64988;51.058;17.040;2023-04-10T09:18:13;54.90;;;34.80;;
63350;SDS011;64988;51.058;17.040;2023-04-10T09:23:41;54.85;;;33.45;;
63350;SDS011;64988;51.058;17.040;2023-04-10T09:29:11;54.00;;;33.67;;
63350;SDS011;64988;51.058;17.040;2023-04-10T09:35:00;54.83;;;34.55;;
63350;SDS011;64988;51.058;17.040;2023-04-10T09:40:27;54.38;;;34.63;;
63350;SDS011;64988;51.058;17.040;2023-04-10T09:45:55;49.08;;;32.28;;
63350;SDS011;64988;51.058;17.040;2023-04-10T09:51:26;53.53;;;33.47;;
63350;SDS011;64988;51.058;17.040;2023-04-10T09:56:56;47.70;;;31.70;;
63350;SDS011;64988;51.058;17.040;2023-04-10T10:02:25;49.33;;;31.08;;
63350;SDS011;64988;51.058;17.040;2023-04-10T10:07:56;43.53;;;29.08;;
63350;SDS011;64988;51.058;17.040;2023-04-10T10:19:15;47.25;;;30.95;;
63350;SDS011;64988;51.058;17.040;2023-04-10T10:24:48;49.03;;;31.63;;
63350;SDS011;64988;51.058;17.040;2023-04-10T10:30:16;54.20;;;34.13;;
63350;SDS011;64988;51.058;17.040;2023-04-10T10:35:59;53.10;;;32.75;;
63350;SDS011;64988;51.058;17.040;2023-04-10T10:41:31;48.08;;;31.95;;
63350;SDS011;64988;51.058;17.040;2023-04-10T10:47:13;47.58;;;32.65;;
63350;SDS011;64988;51.058;17.040;2023-04-10T10:52:54;51.47;;;31.67;;
63350;SDS011;64988;51.058;17.040;2023-04-10T11:10:12;50.65;;;29.95;;
63350;SDS011;64988;51.058;17.040;2023-04-10T11:15:39;48.28;;;30.50;;
63350;SDS011;64988;51.058;17.040;2023-04-10T11:21:07;51.75;;;29.35;;
63350;SDS011;64988;51.058;17.040;2023-04-10T11:26:37;50.20;;;29.63;;
63350;SDS011;64988;51.058;17.040;2023-04-10T11:32:08;45.75;;;29.55;;
63350;SDS011;64988;51.058;17.040;2023-04-10T11:37:36;43.42;;;28.30;;
63350;SDS011;64988;51.058;17.040;2023-04-10T11:43:12;45.08;;;28.35;;
63350;SDS011;64988;51.058;17.040;2023-04-10T11:48:41;40.72;;;25.88;;
63350;SDS011;64988;51.058;17.040;2023-04-10T11:54:10;38.63;;;24.90;;
63350;SDS011;64988;51.058;17.040;2023-04-10T11:59:38;38.80;;;25.15;;
63350;SDS011;64988;51.058;17.040;2023-04-10T12:05:05;39.92;;;26.33;;
63350;SDS011;64988;51.058;17.040;2023-04-10T12:10:43;41.33;;;25.45;;
63350;SDS011;64988;51.058;17.040;2023-04-10T12:16:12;41.25;;;26.48;;
63350;SDS011;64988;51.058;17.040;2023-04-10T12:21:40;36.45;;;25.10;;
63350;SDS011;64988;51.058;17.040;2023-04-10T12:32:54;39.28;;;25.55;;
63350;SDS011;64988;51.058;17.040;2023-04-10T12:44:07;31.25;;;22.55;;
63350;SDS011;64988;51.058;17.040;2023-04-10T12:49:35;31.80;;;21.77;;
63350;SDS011;64988;51.058;17.040;2023-04-10T12:55:12;37.45;;;25.00;;
63350;SDS011;64988;51.058;17.040;2023-04-10T13:00:41;32.90;;;23.65;;
63350;SDS011;64988;51.058;17.040;2023-04-10T13:06:08;34.33;;;24.10;;
63350;SDS011;64988;51.058;17.040;2023-04-10T13:11:35;33.40;;;22.90;;
63350;SDS011;64988;51.058;17.040;2023-04-10T13:17:03;29.98;;;21.70;;
63350;SDS011;64988;51.058;17.040;2023-04-10T13:22:30;32.42;;;21.35;;
63350;SDS011;64988;51.058;17.040;2023-04-10T13:27:59;26.50;;;17.27;;
63350;SDS011;64988;51.058;17.040;2023-04-10T13:33:27;24.20;;;16.65;;
63350;SDS011;64988;51.058;17.040;2023-04-10T13:38:55;27.80;;;18.40;;
63350;SDS011;64988;51.058;17.040;2023-04-10T13:44:23;28.90;;;18.08;;
63350;SDS011;64988;51.058;17.040;2023-04-10T13:49:51;27.65;;;18.55;;
63350;SDS011;64988;51.058;17.040;2023-04-10T13:55:18;31.33;;;19.52;;
63350;SDS011;64988;51.058;17.040;2023-04-10T14:00:45;29.02;;;19.80;;
63350;SDS011;64988;51.058;17.040;2023-04-10T14:06:13;31.25;;;19.48;;
63350;SDS011;64988;51.058;17.040;2023-04-10T14:11:40;33.65;;;21.75;;
63350;SDS011;64988;51.058;17.040;2023-04-10T14:17:08;33.53;;;20.80;;
63350;SDS011;64988;51.058;17.040;2023-04-10T14:22:36;34.72;;;19.52;;
63350;SDS011;64988;51.058;17.040;2023-04-10T14:28:04;33.38;;;21.02;;
63350;SDS011;64988;51.058;17.040;2023-04-10T14:33:32;33.10;;;20.90;;
63350;SDS011;64988;51.058;17.040;2023-04-10T14:39:01;32.95;;;20.75;;
63350;SDS011;64988;51.058;17.040;2023-04-10T14:44:28;31.88;;;20.48;;
63350;SDS011;64988;51.058;17.040;2023-04-10T14:49:56;31.20;;;20.50;;
63350;SDS011;64988;51.058;17.040;2023-04-10T14:55:24;33.40;;;21.08;;
63350;SDS011;64988;51.058;17.040;2023-04-10T15:00:52;34.85;;;21.17;;
63350;SDS011;64988;51.058;17.040;2023-04-10T15:06:20;27.88;;;17.90;;
63350;SDS011;64988;51.058;17.040;2023-04-10T15:11:48;32.22;;;18.88;;
63350;SDS011;64988;51.058;17.040;2023-04-10T15:17:15;30.00;;;19.00;;
63350;SDS011;64988;51.058;17.040;2023-04-10T15:22:43;32.05;;;19.45;;
63350;SDS011;64988;51.058;17.040;2023-04-10T15:28:11;27.00;;;16.35;;
63350;SDS011;64988;51.058;17.040;2023-04-10T15:33:38;27.23;;;16.73;;
63350;SDS011;64988;51.058;17.040;2023-04-10T15:39:07;27.90;;;17.45;;
63350;SDS011;64988;51.058;17.040;2023-04-10T15:44:34;25.02;;;16.50;;
63350;SDS011;64988;51.058;17.040;2023-04-10T15:50:02;30.80;;;18.92;;
63350;SDS011;64988;51.058;17.040;2023-04-10T15:55:31;26.05;;;16.13;;
63350;SDS011;64988;51.058;17.040;2023-04-10T16:00:59;28.83;;;17.38;;
63350;SDS011;64988;51.058;17.040;2023-04-10T16:06:27;25.02;;;16.25;;
63350;SDS011;64988;51.058;17.040;2023-04-10T16:11:55;24.55;;;15.93;;
63350;SDS011;64988;51.058;17.040;2023-04-10T16:17:24;21.20;;;12.40;;
63350;SDS011;64988;51.058;17.040;2023-04-10T16:22:51;27.58;;;17.05;;
63350;SDS011;64988;51.058;17.040;2023-04-10T16:28:19;27.80;;;17.08;;
63350;SDS011;64988;51.058;17.040;2023-04-10T16:33:49;29.15;;;17.23;;
63350;SDS011;64988;51.058;17.040;2023-04-10T16:39:17;27.95;;;17.60;;
63350;SDS011;64988;51.058;17.040;2023-04-10T16:44:44;27.67;;;17.55;;
63350;SDS011;64988;51.058;17.040;2023-04-10T16:50:12;30.55;;;18.95;;
63350;SDS011;64988;51.058;17.040;2023-04-10T16:55:39;32.03;;;18.55;;
63350;SDS011;64988;51.058;17.040;2023-04-10T17:01:16;28.27;;;17.98;;
63350;SDS011;64988;51.058;17.040;2023-04-10T17:06:47;29.67;;;18.20;;
63350;SDS011;64988;51.058;17.040;2023-04-10T17:12:15;33.45;;;20.65;;
63350;SDS011;64988;51.058;17.040;2023-04-10T17:17:43;41.75;;;20.55;;
63350;SDS011;64988;51.058;17.040;2023-04-10T17:23:10;37.22;;;20.67;;
63350;SDS011;64988;51.058;17.040;2023-04-10T17:28:37;44.97;;;23.67;;
63350;SDS011;64988;51.058;17.040;2023-04-10T17:34:05;45.70;;;23.80;;
63350;SDS011;64988;51.058;17.040;2023-04-10T17:39:33;42.92;;;24.77;;
63350;SDS011;64988;51.058;17.040;2023-04-10T17:45:00;45.40;;;26.08;;
63350;SDS011;64988;51.058;17.040;2023-04-10T17:50:28;50.47;;;25.73;;
63350;SDS011;64988;51.058;17.040;2023-04-10T17:55:56;50.97;;;27.58;;
63350;SDS011;64988;51.058;17.040;2023-04-10T18:01:24;59.85;;;32.15;;
63350;SDS011;64988;51.058;17.040;2023-04-10T18:06:56;55.05;;;29.38;;
63350;SDS011;64988;51.058;17.040;2023-04-10T18:12:24;56.55;;;27.58;;
63350;SDS011;64988;51.058;17.040;2023-04-10T18:17:52;51.20;;;28.73;;
63350;SDS011;64988;51.058;17.040;2023-04-10T18:23:20;58.22;;;30.90;;
63350;SDS011;64988;51.058;17.040;2023-04-10T18:28:50;54.28;;;30.10;;
63350;SDS011;64988;51.058;17.040;2023-04-10T18:34:18;48.55;;;26.42;;
63350;SDS011;64988;51.058;17.040;2023-04-10T18:39:45;48.88;;;25.00;;
63350;SDS011;64988;51.058;17.040;2023-04-10T18:45:13;52.65;;;27.88;;
63350;SDS011;64988;51.058;17.040;2023-04-10T18:50:40;54.90;;;28.25;;
63350;SDS011;64988;51.058;17.040;2023-04-10T18:56:07;55.63;;;28.73;;
63350;SDS011;64988;51.058;17.040;2023-04-10T19:01:35;60.63;;;31.17;;
63350;SDS011;64988;51.058;17.040;2023-04-10T19:07:05;61.25;;;31.65;;
63350;SDS011;64988;51.058;17.040;2023-04-10T19:12:34;69.63;;;35.30;;
63350;SDS011;64988;51.058;17.040;2023-04-10T19:18:02;66.38;;;32.88;;
63350;SDS011;64988;51.058;17.040;2023-04-10T19:23:29;67.68;;;32.22;;
63350;SDS011;64988;51.058;17.040;2023-04-10T19:28:57;57.63;;;31.58;;
63350;SDS011;64988;51.058;17.040;2023-04-10T19:34:25;66.22;;;33.15;;
63350;SDS011;64988;51.058;17.040;2023-04-10T19:39:52;68.90;;;34.65;;
63350;SDS011;64988;51.058;17.040;2023-04-10T19:45:22;72.10;;;36.00;;
63350;SDS011;64988;51.058;17.040;2023-04-10T19:50:53;71.70;;;35.50;;
63350;SDS011;64988;51.058;17.040;2023-04-10T19:56:23;71.88;;;35.03;;
63350;SDS011;64988;51.058;17.040;2023-04-10T20:01:53;66.13;;;33.95;;
63350;SDS011;64988;51.058;17.040;2023-04-10T20:07:21;70.43;;;33.55;;
63350;SDS011;64988;51.058;17.040;2023-04-10T20:12:48;74.53;;;36.15;;
63350;SDS011;64988;51.058;17.040;2023-04-10T20:18:15;72.93;;;36.17;;
63350;SDS011;64988;51.058;17.040;2023-04-10T20:23:42;75.50;;;35.05;;
63350;SDS011;64988;51.058;17.040;2023-04-10T20:29:10;80.28;;;37.05;;
63350;SDS011;64988;51.058;17.040;2023-04-10T20:34:37;73.05;;;37.45;;
63350;SDS011;64988;51.058;17.040;2023-04-10T20:40:04;84.80;;;38.00;;
63350;SDS011;64988;51.058;17.040;2023-04-10T20:45:32;79.13;;;38.20;;
63350;SDS011;64988;51.058;17.040;2023-04-10T20:51:00;75.72;;;37.35;;
63350;SDS011;64988;51.058;17.040;2023-04-10T20:56:28;84.93;;;39.00;;
63350;SDS011;64988;51.058;17.040;2023-04-10T21:02:09;80.85;;;36.53;;
63350;SDS011;64988;51.058;17.040;2023-04-10T21:07:37;81.55;;;37.33;;
63350;SDS011;64988;51.058;17.040;2023-04-10T21:13:04;90.65;;;40.55;;
63350;SDS011;64988;51.058;17.040;2023-04-10T21:18:31;88.90;;;41.58;;
63350;SDS011;64988;51.058;17.040;2023-04-10T21:23:59;83.45;;;40.28;;
63350;SDS011;64988;51.058;17.040;2023-04-10T21:29:27;94.32;;;42.75;;
63350;SDS011;64988;51.058;17.040;2023-04-10T21:34:56;95.20;;;43.15;;
63350;SDS011;64988;51.058;17.040;2023-04-10T21:40:23;101.35;;;42.80;;
63350;SDS011;64988;51.058;17.040;2023-04-10T21:45:51;92.90;;;41.85;;
63350;SDS011;64988;51.058;17.040;2023-04-10T21:51:20;97.43;;;43.50;;
63350;SDS011;64988;51.058;17.040;2023-04-10T21:56:47;94.28;;;43.63;;
63350;SDS011;64988;51.058;17.040;2023-04-10T22:02:15;94.38;;;41.50;;
63350;SDS011;64988;51.058;17.040;2023-04-10T22:07:42;105.32;;;46.63;;
63350;SDS011;64988;51.058;17.040;2023-04-10T22:13:10;106.60;;;45.38;;
63350;SDS011;64988;51.058;17.040;2023-04-10T22:18:53;107.70;;;47.65;;
63350;SDS011;64988;51.058;17.040;2023-04-10T22:24:21;105.07;;;45.13;;
63350;SDS011;64988;51.058;17.040;2023-04-10T22:29:48;99.70;;;45.00;;
63350;SDS011;64988;51.058;17.040;2023-04-10T22:35:29;109.63;;;46.47;;
63350;SDS011;64988;51.058;17.040;2023-04-10T22:40:56;108.35;;;45.45;;
63350;SDS011;64988;51.058;17.040;2023-04-10T22:46:24;103.85;;;47.65;;
63350;SDS011;64988;51.058;17.040;2023-04-10T22:51:52;112.18;;;48.47;;
63350;SDS011;64988;51.058;17.040;2023-04-10T22:57:19;109.15;;;48.55;;
63350;SDS011;64988;51.058;17.040;2023-04-10T23:02:47;112.63;;;46.88;;
63350;SDS011;64988;51.058;17.040;2023-04-10T23:08:16;108.50;;;44.55;;
63350;SDS011;64988;51.058;17.040;2023-04-10T23:13:43;100.45;;;43.42;;
63350;SDS011;64988;51.058;17.040;2023-04-10T23:19:09;102.13;;;45.20;;
63350;SDS011;64988;51.058;17.040;2023-04-10T23:24:37;109.13;;;44.67;;
63350;SDS011;64988;51.058;17.040;2023-04-10T23:30:05;105.38;;;47.08;;
63350;SDS011;64988;51.058;17.040;2023-04-10T23:35:33;109.95;;;46.33;;
63350;SDS011;64988;51.058;17.040;2023-04-10T23:41:00;113.35;;;48.28;;
63350;SDS011;64988;51.058;17.040;2023-04-10T23:46:29;114.55;;;50.65;;
63350;SDS011;64988;51.058;17.040;2023-04-10T23:51:57;112.85;;;47.92;;
63350;SDS011;64988;51.058;17.040;2023-04-10T23:57:24;110.63;;;48.70;;
